sensor_id;sensor_type;location;lat;lon;timestamp;pressure;altitude;pressure_sealevel;temperature;humidity
55540;BME280;41384;51.418;7.286;2023-02-22T00:02:10;99768.63;;;6.97;100.00
55540;BME280;41384;51.418;7.286;2023-02-22T00:04:36;99770.88;;;7.15;100.00
55540;BME280;41384;51.418;7.286;2023-02-22T00:07:04;99768.09;;;7.01;100.00
55540;BME280;41384;51.418;7.286;2023-02-22T00:09:29;99767.72;;;7.05;100.00
55540;BME280;41384;51.418;7.286;2023-02-22T00:11:54;99766.47;;;7.00;100.00
55540;BME280;41384;51.418;7.286;2023-02-22T00:14:19;99762.59;;;6.96;100.00
55540;BME280;41384;51.418;7.286;2023-02-22T00:16:45;99767.47;;;6.84;100.00
55540;BME280;41384;51.418;7.286;2023-02-22T00:19:10;99758.50;;;6.94;100.00
55540;BME280;41384;51.418;7.286;2023-02-22T00:21:35;99760.44;;;6.85;100.00
55540;BME280;41384;51.418;7.286;2023-02-22T00:24:01;99757.22;;;7.05;100.00
55540;BME280;41384;51.418;7.286;2023-02-22T00:26:46;99755.66;;;6.74;100.00
55540;BME280;41384;51.418;7.286;2023-02-22T00:29:12;99746.22;;;6.94;100.00
55540;BME280;41384;51.418;7.286;2023-02-22T00:31:37;99743.97;;;6.91;100.00
55540;BME280;41384;51.418;7.286;2023-02-22T00:34:03;99751.00;;;6.91;100.00
55540;BME280;41384;51.418;7.286;2023-02-22T00:36:28;99753.25;;;6.94;100.00
55540;BME280;41384;51.418;7.286;2023-02-22T00:38:54;99752.56;;;6.70;100.00
55540;BME280;41384;51.418;7.286;2023-02-22T00:41:19;99751.03;;;6.76;100.00
55540;BME280;41384;51.418;7.286;2023-02-22T00:43:45;99749.31;;;6.83;100.00
55540;BME280;41384;51.418;7.286;2023-02-22T00:46:13;99741.97;;;6.93;100.00
55540;BME280;41384;51.418;7.286;2023-02-22T00:48:39;99738.59;;;6.99;100.00
55540;BME280;41384;51.418;7.286;2023-02-22T00:51:04;99741.06;;;6.86;100.00
55540;BME280;41384;51.418;7.286;2023-02-22T00:53:30;99740.66;;;6.67;100.00
55540;BME280;41384;51.418;7.286;2023-02-22T00:55:55;99741.72;;;6.73;100.00
55540;BME280;41384;51.418;7.286;2023-02-22T00:58:21;99734.47;;;6.75;100.00
55540;BME280;41384;51.418;7.286;2023-02-22T01:00:47;99730.75;;;6.84;100.00
55540;BME280;41384;51.418;7.286;2023-02-22T01:03:13;99732.09;;;6.95;100.00
55540;BME280;41384;51.418;7.286;2023-02-22T01:05:39;99732.59;;;6.39;100.00
55540;BME280;41384;51.418;7.286;2023-02-22T01:08:06;99729.94;;;6.69;100.00
55540;BME280;41384;51.418;7.286;2023-02-22T01:10:33;99723.06;;;6.83;100.00
55540;BME280;41384;51.418;7.286;2023-02-22T01:12:59;99724.59;;;6.92;100.00
55540;BME280;41384;51.418;7.286;2023-02-22T01:15:27;99722.91;;;6.69;100.00
55540;BME280;41384;51.418;7.286;2023-02-22T01:17:55;99717.47;;;6.56;100.00
55540;BME280;41384;51.418;7.286;2023-02-22T01:20:22;99718.47;;;6.55;100.00
55540;BME280;41384;51.418;7.286;2023-02-22T01:22:52;99710.78;;;6.38;100.00
55540;BME280;41384;51.418;7.286;2023-02-22T01:25:23;99708.06;;;6.62;100.00
55540;BME280;41384;51.418;7.286;2023-02-22T01:27:50;99704.00;;;6.59;100.00
55540;BME280;41384;51.418;7.286;2023-02-22T01:30:20;99702.38;;;6.58;100.00
55540;BME280;41384;51.418;7.286;2023-02-22T01:32:45;99693.81;;;6.49;100.00
55540;BME280;41384;51.418;7.286;2023-02-22T01:35:13;99690.69;;;6.76;100.00
55540;BME280;41384;51.418;7.286;2023-02-22T01:37:40;99690.81;;;6.67;100.00
55540;BME280;41384;51.418;7.286;2023-02-22T01:40:08;99693.72;;;6.57;100.00
55540;BME280;41384;51.418;7.286;2023-02-22T01:42:34;99693.78;;;6.64;100.00
55540;BME280;41384;51.418;7.286;2023-02-22T01:48:01;99675.22;;;6.81;100.00
55540;BME280;41384;51.418;7.286;2023-02-22T01:50:28;99681.03;;;6.61;100.00
55540;BME280;41384;51.418;7.286;2023-02-22T01:52:54;99684.75;;;6.52;100.00
55540;BME280;41384;51.418;7.286;2023-02-22T01:55:19;99682.50;;;6.49;100.00
55540;BME280;41384;51.418;7.286;2023-02-22T01:57:45;99682.16;;;6.37;100.00
55540;BME280;41384;51.418;7.286;2023-02-22T02:00:14;99678.06;;;6.34;100.00
55540;BME280;41384;51.418;7.286;2023-02-22T02:02:43;99672.66;;;6.36;100.00
55540;BME280;41384;51.418;7.286;2023-02-22T02:05:09;99672.41;;;6.31;100.00
55540;BME280;41384;51.418;7.286;2023-02-22T02:07:36;99678.53;;;6.23;100.00
55540;BME280;41384;51.418;7.286;2023-02-22T02:10:08;99679.44;;;6.30;100.00
55540;BME280;41384;51.418;7.286;2023-02-22T02:12:40;99674.28;;;6.22;100.00
55540;BME280;41384;51.418;7.286;2023-02-22T02:15:28;99672.06;;;5.95;100.00
55540;BME280;41384;51.418;7.286;2023-02-22T02:17:56;99675.44;;;6.34;100.00
55540;BME280;41384;51.418;7.286;2023-02-22T02:26:08;99674.66;;;6.34;100.00
55540;BME280;41384;51.418;7.286;2023-02-22T02:32:02;99661.53;;;6.34;100.00
55540;BME280;41384;51.418;7.286;2023-02-22T02:34:58;99667.69;;;6.41;100.00
55540;BME280;41384;51.418;7.286;2023-02-22T02:37:29;99659.91;;;6.18;100.00
55540;BME280;41384;51.418;7.286;2023-02-22T02:42:31;99653.00;;;5.87;100.00
55540;BME280;41384;51.418;7.286;2023-02-22T02:45:18;99658.88;;;5.89;100.00
55540;BME280;41384;51.418;7.286;2023-02-22T02:47:50;99652.53;;;5.83;100.00
55540;BME280;41384;51.418;7.286;2023-02-22T02:50:28;99641.97;;;5.91;100.00
55540;BME280;41384;51.418;7.286;2023-02-22T02:52:58;99644.88;;;5.81;100.00
55540;BME280;41384;51.418;7.286;2023-02-22T02:55:28;99636.63;;;5.69;100.00
55540;BME280;41384;51.418;7.286;2023-02-22T02:57:54;99636.91;;;5.75;100.00
55540;BME280;41384;51.418;7.286;2023-02-22T03:00:24;99635.16;;;5.67;100.00
55540;BME280;41384;51.418;7.286;2023-02-22T03:09:03;99630.50;;;5.92;100.00
55540;BME280;41384;51.418;7.286;2023-02-22T03:11:37;99630.28;;;6.02;100.00
55540;BME280;41384;51.418;7.286;2023-02-22T03:15:04;99623.56;;;5.84;100.00
55540;BME280;41384;51.418;7.286;2023-02-22T03:17:39;99616.75;;;5.60;100.00
55540;BME280;41384;51.418;7.286;2023-02-22T03:20:11;99616.78;;;5.90;100.00
55540;BME280;41384;51.418;7.286;2023-02-22T03:23:06;99611.97;;;5.64;100.00
55540;BME280;41384;51.418;7.286;2023-02-22T03:25:39;99614.22;;;5.52;100.00
55540;BME280;41384;51.418;7.286;2023-02-22T03:28:09;99613.03;;;5.39;100.00
55540;BME280;41384;51.418;7.286;2023-02-22T03:30:50;99606.84;;;5.70;100.00
55540;BME280;41384;51.418;7.286;2023-02-22T03:33:22;99607.56;;;5.64;100.00
55540;BME280;41384;51.418;7.286;2023-02-22T03:35:55;99607.09;;;5.61;100.00
55540;BME280;41384;51.418;7.286;2023-02-22T03:38:26;99600.38;;;5.43;100.00
55540;BME280;41384;51.418;7.286;2023-02-22T03:40:54;99597.25;;;5.48;100.00
55540;BME280;41384;51.418;7.286;2023-02-22T03:43:27;99597.78;;;5.73;100.00
55540;BME280;41384;51.418;7.286;2023-02-22T03:45:54;99595.63;;;5.62;100.00
55540;BME280;41384;51.418;7.286;2023-02-22T03:48:34;99588.94;;;5.74;100.00
55540;BME280;41384;51.418;7.286;2023-02-22T03:51:02;99587.66;;;5.40;100.00
55540;BME280;41384;51.418;7.286;2023-02-22T03:53:29;99589.81;;;5.36;100.00
55540;BME280;41384;51.418;7.286;2023-02-22T03:55:56;99583.91;;;5.73;100.00
55540;BME280;41384;51.418;7.286;2023-02-22T03:58:23;99586.84;;;5.54;100.00
55540;BME280;41384;51.418;7.286;2023-02-22T04:00:51;99578.53;;;5.36;100.00
55540;BME280;41384;51.418;7.286;2023-02-22T04:03:19;99574.41;;;5.57;100.00
55540;BME280;41384;51.418;7.286;2023-02-22T04:05:45;99576.53;;;5.38;100.00
55540;BME280;41384;51.418;7.286;2023-02-22T04:08:10;99577.34;;;5.23;100.00
55540;BME280;41384;51.418;7.286;2023-02-22T04:10:35;99577.28;;;5.08;100.00
55540;BME280;41384;51.418;7.286;2023-02-22T04:13:02;99573.75;;;5.39;100.00
55540;BME280;41384;51.418;7.286;2023-02-22T04:15:27;99571.25;;;5.23;100.00
55540;BME280;41384;51.418;7.286;2023-02-22T04:17:53;99571.31;;;5.00;100.00
55540;BME280;41384;51.418;7.286;2023-02-22T04:20:18;99577.97;;;5.02;100.00
55540;BME280;41384;51.418;7.286;2023-02-22T04:22:45;99577.97;;;4.79;100.00
55540;BME280;41384;51.418;7.286;2023-02-22T04:25:11;99580.22;;;4.90;100.00
55540;BME280;41384;51.418;7.286;2023-02-22T04:27:36;99579.78;;;4.78;100.00
55540;BME280;41384;51.418;7.286;2023-02-22T04:30:01;99568.94;;;4.90;100.00
55540;BME280;41384;51.418;7.286;2023-02-22T04:32:27;99575.06;;;4.74;100.00
55540;BME280;41384;51.418;7.286;2023-02-22T04:34:52;99573.56;;;4.56;100.00
55540;BME280;41384;51.418;7.286;2023-02-22T04:37:18;99580.31;;;4.50;100.00
55540;BME280;41384;51.418;7.286;2023-02-22T04:39:43;99571.72;;;4.65;100.00
55540;BME280;41384;51.418;7.286;2023-02-22T04:42:08;99572.75;;;4.24;100.00
55540;BME280;41384;51.418;7.286;2023-02-22T04:44:33;99570.41;;;3.98;100.00
55540;BME280;41384;51.418;7.286;2023-02-22T04:46:59;99573.88;;;3.82;100.00
55540;BME280;41384;51.418;7.286;2023-02-22T04:49:24;99570.91;;;4.33;100.00
55540;BME280;41384;51.418;7.286;2023-02-22T04:51:50;99576.72;;;4.51;100.00
55540;BME280;41384;51.418;7.286;2023-02-22T04:54:15;99572.63;;;4.49;100.00
55540;BME280;41384;51.418;7.286;2023-02-22T04:56:42;99566.66;;;4.63;100.00
55540;BME280;41384;51.418;7.286;2023-02-22T04:59:08;99566.41;;;4.50;100.00
55540;BME280;41384;51.418;7.286;2023-02-22T05:01:34;99562.25;;;4.32;100.00
55540;BME280;41384;51.418;7.286;2023-02-22T05:04:06;99564.56;;;4.59;100.00
55540;BME280;41384;51.418;7.286;2023-02-22T05:06:32;99564.00;;;4.40;100.00
55540;BME280;41384;51.418;7.286;2023-02-22T05:08:57;99561.81;;;4.52;100.00
55540;BME280;41384;51.418;7.286;2023-02-22T05:11:23;99553.88;;;4.68;100.00
55540;BME280;41384;51.418;7.286;2023-02-22T05:13:48;99556.78;;;4.50;100.00
55540;BME280;41384;51.418;7.286;2023-02-22T05:16:14;99555.16;;;4.73;100.00
55540;BME280;41384;51.418;7.286;2023-02-22T05:18:40;99554.41;;;4.87;100.00
55540;BME280;41384;51.418;7.286;2023-02-22T05:21:05;99559.03;;;4.53;100.00
55540;BME280;41384;51.418;7.286;2023-02-22T05:23:31;99557.75;;;4.18;100.00
55540;BME280;41384;51.418;7.286;2023-02-22T05:25:56;99562.06;;;4.02;100.00
55540;BME280;41384;51.418;7.286;2023-02-22T05:28:22;99559.06;;;4.22;100.00
55540;BME280;41384;51.418;7.286;2023-02-22T05:30:47;99553.59;;;4.00;100.00
55540;BME280;41384;51.418;7.286;2023-02-22T05:33:13;99555.06;;;3.94;100.00
55540;BME280;41384;51.418;7.286;2023-02-22T05:35:38;99549.47;;;3.58;100.00
55540;BME280;41384;51.418;7.286;2023-02-22T05:38:04;99553.69;;;3.67;100.00
55540;BME280;41384;51.418;7.286;2023-02-22T05:40:30;99556.63;;;3.64;100.00
55540;BME280;41384;51.418;7.286;2023-02-22T05:42:56;99547.97;;;3.72;100.00
55540;BME280;41384;51.418;7.286;2023-02-22T05:45:23;99542.31;;;4.00;100.00
55540;BME280;41384;51.418;7.286;2023-02-22T05:47:49;99538.81;;;3.84;100.00
55540;BME280;41384;51.418;7.286;2023-02-22T05:50:15;99536.06;;;3.69;100.00
55540;BME280;41384;51.418;7.286;2023-02-22T05:52:41;99536.72;;;3.71;100.00
55540;BME280;41384;51.418;7.286;2023-02-22T05:55:08;99540.19;;;3.55;100.00
55540;BME280;41384;51.418;7.286;2023-02-22T05:57:34;99537.06;;;3.60;100.00
55540;BME280;41384;51.418;7.286;2023-02-22T06:00:00;99528.75;;;3.64;100.00
55540;BME280;41384;51.418;7.286;2023-02-22T06:02:25;99532.53;;;3.45;100.00
55540;BME280;41384;51.418;7.286;2023-02-22T06:04:50;99531.78;;;3.76;100.00
55540;BME280;41384;51.418;7.286;2023-02-22T06:07:16;99529.19;;;3.76;100.00
55540;BME280;41384;51.418;7.286;2023-02-22T06:09:41;99527.75;;;3.74;100.00
55540;BME280;41384;51.418;7.286;2023-02-22T06:12:07;99529.47;;;3.90;100.00
55540;BME280;41384;51.418;7.286;2023-02-22T06:14:33;99531.72;;;3.93;100.00
55540;BME280;41384;51.418;7.286;2023-02-22T06:16:58;99521.44;;;4.00;100.00
55540;BME280;41384;51.418;7.286;2023-02-22T06:19:25;99531.56;;;3.94;100.00
55540;BME280;41384;51.418;7.286;2023-02-22T06:21:52;99525.81;;;3.68;100.00
55540;BME280;41384;51.418;7.286;2023-02-22T06:24:18;99523.22;;;3.59;100.00
55540;BME280;41384;51.418;7.286;2023-02-22T06:26:44;99516.97;;;3.77;100.00
55540;BME280;41384;51.418;7.286;2023-02-22T06:29:09;99526.84;;;3.98;100.00
55540;BME280;41384;51.418;7.286;2023-02-22T06:31:34;99517.53;;;4.27;100.00
55540;BME280;41384;51.418;7.286;2023-02-22T06:34:00;99528.88;;;4.11;100.00
55540;BME280;41384;51.418;7.286;2023-02-22T06:36:26;99519.75;;;4.07;100.00
55540;BME280;41384;51.418;7.286;2023-02-22T06:38:51;99515.09;;;4.26;100.00
55540;BME280;41384;51.418;7.286;2023-02-22T06:41:16;99520.56;;;4.16;100.00
55540;BME280;41384;51.418;7.286;2023-02-22T06:43:41;99519.16;;;3.97;100.00
55540;BME280;41384;51.418;7.286;2023-02-22T06:46:10;99530.69;;;4.11;100.00
55540;BME280;41384;51.418;7.286;2023-02-22T06:48:37;99520.31;;;4.26;100.00
55540;BME280;41384;51.418;7.286;2023-02-22T06:51:04;99518.91;;;4.46;100.00
55540;BME280;41384;51.418;7.286;2023-02-22T06:53:32;99529.13;;;4.56;100.00
55540;BME280;41384;51.418;7.286;2023-02-22T06:55:57;99528.09;;;4.42;100.00
55540;BME280;41384;51.418;7.286;2023-02-22T06:58:22;99528.00;;;4.27;100.00
55540;BME280;41384;51.418;7.286;2023-02-22T07:00:48;99521.34;;;4.71;100.00
55540;BME280;41384;51.418;7.286;2023-02-22T07:03:13;99527.75;;;4.45;100.00
55540;BME280;41384;51.418;7.286;2023-02-22T07:05:39;99532.34;;;4.35;100.00
55540;BME280;41384;51.418;7.286;2023-02-22T07:08:06;99524.03;;;4.63;100.00
55540;BME280;41384;51.418;7.286;2023-02-22T07:10:32;99534.00;;;4.59;100.00
55540;BME280;41384;51.418;7.286;2023-02-22T07:12:58;99528.34;;;4.71;100.00
55540;BME280;41384;51.418;7.286;2023-02-22T07:15:25;99526.50;;;4.56;100.00
55540;BME280;41384;51.418;7.286;2023-02-22T07:17:52;99524.41;;;4.75;100.00
55540;BME280;41384;51.418;7.286;2023-02-22T07:20:17;99523.34;;;4.84;100.00
55540;BME280;41384;51.418;7.286;2023-02-22T07:22:45;99522.16;;;4.72;100.00
55540;BME280;41384;51.418;7.286;2023-02-22T07:25:10;99524.81;;;4.87;100.00
55540;BME280;41384;51.418;7.286;2023-02-22T07:27:37;99518.66;;;5.03;100.00
55540;BME280;41384;51.418;7.286;2023-02-22T07:30:04;99521.53;;;5.08;100.00
55540;BME280;41384;51.418;7.286;2023-02-22T07:32:30;99512.06;;;5.07;100.00
55540;BME280;41384;51.418;7.286;2023-02-22T07:34:55;99513.28;;;5.34;100.00
55540;BME280;41384;51.418;7.286;2023-02-22T07:37:21;99517.34;;;5.67;100.00
55540;BME280;41384;51.418;7.286;2023-02-22T07:39:46;99512.66;;;5.77;100.00
55540;BME280;41384;51.418;7.286;2023-02-22T07:42:11;99516.63;;;6.03;100.00
55540;BME280;41384;51.418;7.286;2023-02-22T07:44:37;99517.94;;;6.14;100.00
55540;BME280;41384;51.418;7.286;2023-02-22T07:47:02;99520.03;;;6.19;100.00
55540;BME280;41384;51.418;7.286;2023-02-22T07:49:27;99525.59;;;6.31;100.00
55540;BME280;41384;51.418;7.286;2023-02-22T07:51:53;99518.63;;;6.38;100.00
55540;BME280;41384;51.418;7.286;2023-02-22T07:54:18;99512.81;;;6.42;100.00
55540;BME280;41384;51.418;7.286;2023-02-22T07:56:47;99515.88;;;6.46;100.00
55540;BME280;41384;51.418;7.286;2023-02-22T07:59:13;99509.88;;;6.52;100.00
55540;BME280;41384;51.418;7.286;2023-02-22T08:01:39;99514.56;;;6.57;100.00
55540;BME280;41384;51.418;7.286;2023-02-22T08:04:04;99506.31;;;6.60;100.00
55540;BME280;41384;51.418;7.286;2023-02-22T08:06:30;99508.63;;;6.70;100.00
55540;BME280;41384;51.418;7.286;2023-02-22T08:08:56;99503.25;;;6.78;100.00
55540;BME280;41384;51.418;7.286;2023-02-22T08:11:21;99497.69;;;6.88;100.00
55540;BME280;41384;51.418;7.286;2023-02-22T08:13:47;99497.50;;;6.90;100.00
55540;BME280;41384;51.418;7.286;2023-02-22T08:16:13;99496.94;;;6.94;100.00
55540;BME280;41384;51.418;7.286;2023-02-22T08:18:38;99487.72;;;7.05;100.00
55540;BME280;41384;51.418;7.286;2023-02-22T08:21:05;99498.78;;;7.00;100.00
55540;BME280;41384;51.418;7.286;2023-02-22T08:23:30;99491.78;;;7.08;100.00
55540;BME280;41384;51.418;7.286;2023-02-22T08:26:06;99493.03;;;7.12;100.00
55540;BME280;41384;51.418;7.286;2023-02-22T08:28:31;99486.34;;;7.09;100.00
55540;BME280;41384;51.418;7.286;2023-02-22T08:30:56;99488.63;;;7.19;100.00
55540;BME280;41384;51.418;7.286;2023-02-22T08:33:22;99484.59;;;7.23;100.00
55540;BME280;41384;51.418;7.286;2023-02-22T08:35:48;99483.00;;;7.22;100.00
55540;BME280;41384;51.418;7.286;2023-02-22T08:38:22;99475.97;;;7.29;100.00
55540;BME280;41384;51.418;7.286;2023-02-22T08:40:48;99475.41;;;7.34;100.00
55540;BME280;41384;51.418;7.286;2023-02-22T08:43:14;99473.41;;;7.43;100.00
55540;BME280;41384;51.418;7.286;2023-02-22T08:45:40;99478.28;;;7.46;100.00
55540;BME280;41384;51.418;7.286;2023-02-22T08:48:05;99479.78;;;7.62;100.00
55540;BME280;41384;51.418;7.286;2023-02-22T08:50:32;99476.81;;;7.72;100.00
55540;BME280;41384;51.418;7.286;2023-02-22T08:53:01;99469.31;;;7.69;100.00
55540;BME280;41384;51.418;7.286;2023-02-22T08:55:29;99466.56;;;7.91;100.00
55540;BME280;41384;51.418;7.286;2023-02-22T08:57:56;99471.00;;;7.90;100.00
55540;BME280;41384;51.418;7.286;2023-02-22T09:00:22;99465.56;;;7.92;100.00
55540;BME280;41384;51.418;7.286;2023-02-22T09:02:51;99471.47;;;8.00;100.00
55540;BME280;41384;51.418;7.286;2023-02-22T09:05:16;99468.00;;;8.00;100.00
55540;BME280;41384;51.418;7.286;2023-02-22T09:07:42;99464.56;;;8.06;100.00
55540;BME280;41384;51.418;7.286;2023-02-22T09:10:19;99458.53;;;8.12;100.00
55540;BME280;41384;51.418;7.286;2023-02-22T09:12:45;99461.19;;;8.19;100.00
55540;BME280;41384;51.418;7.286;2023-02-22T09:15:11;99469.69;;;8.21;100.00
55540;BME280;41384;51.418;7.286;2023-02-22T09:17:37;99464.03;;;8.31;100.00
55540;BME280;41384;51.418;7.286;2023-02-22T09:20:04;99457.34;;;8.28;100.00
55540;BME280;41384;51.418;7.286;2023-02-22T09:22:30;99461.81;;;8.35;100.00
55540;BME280;41384;51.418;7.286;2023-02-22T09:24:55;99460.63;;;8.44;100.00
55540;BME280;41384;51.418;7.286;2023-02-22T09:27:20;99452.13;;;8.49;100.00
55540;BME280;41384;51.418;7.286;2023-02-22T09:29:48;99454.16;;;8.46;100.00
55540;BME280;41384;51.418;7.286;2023-02-22T09:32:14;99447.88;;;8.47;100.00
55540;BME280;41384;51.418;7.286;2023-02-22T09:34:42;99443.03;;;8.78;100.00
55540;BME280;41384;51.418;7.286;2023-02-22T09:37:10;99446.50;;;8.79;100.00
55540;BME280;41384;51.418;7.286;2023-02-22T09:39:35;99445.69;;;8.71;100.00
55540;BME280;41384;51.418;7.286;2023-02-22T09:42:12;99442.63;;;8.68;100.00
55540;BME280;41384;51.418;7.286;2023-02-22T09:44:49;99436.97;;;8.71;100.00
55540;BME280;41384;51.418;7.286;2023-02-22T09:47:21;99432.94;;;8.68;100.00
55540;BME280;41384;51.418;7.286;2023-02-22T09:49:59;99444.47;;;8.67;100.00
55540;BME280;41384;51.418;7.286;2023-02-22T09:52:33;99442.63;;;8.81;100.00
55540;BME280;41384;51.418;7.286;2023-02-22T09:55:23;99435.97;;;8.79;100.00
55540;BME280;41384;51.418;7.286;2023-02-22T09:57:55;99432.72;;;8.90;100.00
55540;BME280;41384;51.418;7.286;2023-02-22T10:00:32;99433.31;;;8.92;100.00
55540;BME280;41384;51.418;7.286;2023-02-22T10:05:46;99434.69;;;9.22;100.00
55540;BME280;41384;51.418;7.286;2023-02-22T10:08:16;99434.28;;;9.25;100.00
55540;BME280;41384;51.418;7.286;2023-02-22T10:10:44;99437.91;;;9.30;100.00
55540;BME280;41384;51.418;7.286;2023-02-22T10:13:37;99425.72;;;9.36;100.00
55540;BME280;41384;51.418;7.286;2023-02-22T10:16:30;99425.84;;;9.61;100.00
55540;BME280;41384;51.418;7.286;2023-02-22T10:21:50;99427.09;;;9.52;100.00
55540;BME280;41384;51.418;7.286;2023-02-22T10:24:25;99429.34;;;9.48;100.00
55540;BME280;41384;51.418;7.286;2023-02-22T10:26:53;99424.81;;;9.62;100.00
55540;BME280;41384;51.418;7.286;2023-02-22T10:29:39;99430.28;;;9.61;100.00
55540;BME280;41384;51.418;7.286;2023-02-22T10:32:18;99431.94;;;9.55;100.00
55540;BME280;41384;51.418;7.286;2023-02-22T10:34:50;99426.69;;;9.55;100.00
55540;BME280;41384;51.418;7.286;2023-02-22T10:37:24;99427.66;;;9.68;100.00
55540;BME280;41384;51.418;7.286;2023-02-22T10:39:54;99430.22;;;9.81;98.48
55540;BME280;41384;51.418;7.286;2023-02-22T10:42:24;99434.56;;;10.01;98.06
55540;BME280;41384;51.418;7.286;2023-02-22T10:44:50;99438.34;;;10.18;95.01
55540;BME280;41384;51.418;7.286;2023-02-22T10:47:17;99432.22;;;10.25;96.57
55540;BME280;41384;51.418;7.286;2023-02-22T10:49:50;99425.53;;;10.15;99.18
55540;BME280;41384;51.418;7.286;2023-02-22T10:52:27;99422.81;;;10.03;99.92
55540;BME280;41384;51.418;7.286;2023-02-22T10:54:55;99431.34;;;9.99;99.95
55540;BME280;41384;51.418;7.286;2023-02-22T10:57:26;99417.91;;;10.07;98.66
55540;BME280;41384;51.418;7.286;2023-02-22T10:59:52;99421.13;;;10.09;96.88
55540;BME280;41384;51.418;7.286;2023-02-22T11:02:26;99420.34;;;10.08;98.97
55540;BME280;41384;51.418;7.286;2023-02-22T11:04:56;99416.66;;;10.16;97.68
55540;BME280;41384;51.418;7.286;2023-02-22T11:07:25;99417.19;;;10.25;97.18
55540;BME280;41384;51.418;7.286;2023-02-22T11:09:52;99408.63;;;10.30;93.54
55540;BME280;41384;51.418;7.286;2023-02-22T11:12:24;99406.34;;;10.40;90.21
55540;BME280;41384;51.418;7.286;2023-02-22T11:14:50;99403.34;;;10.62;87.58
55540;BME280;41384;51.418;7.286;2023-02-22T11:17:22;99404.25;;;10.49;90.00
55540;BME280;41384;51.418;7.286;2023-02-22T11:19:49;99397.63;;;10.65;89.80
55540;BME280;41384;51.418;7.286;2023-02-22T11:22:24;99392.56;;;10.63;88.86
55540;BME280;41384;51.418;7.286;2023-02-22T11:24:56;99391.78;;;11.00;83.27
55540;BME280;41384;51.418;7.286;2023-02-22T11:27:51;99381.91;;;10.95;83.97
55540;BME280;41384;51.418;7.286;2023-02-22T11:30:21;99390.63;;;10.96;83.88
55540;BME280;41384;51.418;7.286;2023-02-22T11:32:57;99384.09;;;11.17;81.49
55540;BME280;41384;51.418;7.286;2023-02-22T11:35:35;99376.75;;;11.01;82.30
55540;BME280;41384;51.418;7.286;2023-02-22T11:38:26;99376.53;;;11.02;82.27
55540;BME280;41384;51.418;7.286;2023-02-22T11:41:11;99379.19;;;11.21;81.63
55540;BME280;41384;51.418;7.286;2023-02-22T11:43:39;99367.38;;;11.23;81.42
55540;BME280;41384;51.418;7.286;2023-02-22T11:46:09;99370.59;;;11.26;82.76
55540;BME280;41384;51.418;7.286;2023-02-22T11:48:38;99367.44;;;11.35;83.70
55540;BME280;41384;51.418;7.286;2023-02-22T11:54:50;99357.19;;;11.58;82.06
55540;BME280;41384;51.418;7.286;2023-02-22T11:57:36;99352.97;;;11.68;81.57
55540;BME280;41384;51.418;7.286;2023-02-22T12:00:33;99354.25;;;11.78;78.82
55540;BME280;41384;51.418;7.286;2023-02-22T12:03:26;99355.09;;;11.78;77.07
55540;BME280;41384;51.418;7.286;2023-02-22T12:06:23;99357.66;;;11.97;76.05
55540;BME280;41384;51.418;7.286;2023-02-22T12:17:31;99358.38;;;11.74;78.26
55540;BME280;41384;51.418;7.286;2023-02-22T12:22:33;99345.72;;;11.64;78.53
55540;BME280;41384;51.418;7.286;2023-02-22T12:25:24;99336.97;;;11.63;77.22
55540;BME280;41384;51.418;7.286;2023-02-22T12:28:10;99335.31;;;11.81;75.76
55540;BME280;41384;51.418;7.286;2023-02-22T12:30:40;99337.78;;;11.94;76.99
55540;BME280;41384;51.418;7.286;2023-02-22T12:33:21;99327.63;;;11.91;76.90
55540;BME280;41384;51.418;7.286;2023-02-22T12:35:52;99328.16;;;12.00;74.10
55540;BME280;41384;51.418;7.286;2023-02-22T12:38:35;99336.00;;;12.07;74.22
55540;BME280;41384;51.418;7.286;2023-02-22T12:43:50;99320.22;;;12.12;72.80
55540;BME280;41384;51.418;7.286;2023-02-22T12:46:36;99324.63;;;11.88;75.46
55540;BME280;41384;51.418;7.286;2023-02-22T12:49:17;99322.97;;;12.05;74.16
55540;BME280;41384;51.418;7.286;2023-02-22T12:55:10;99320.81;;;12.26;73.18
55540;BME280;41384;51.418;7.286;2023-02-22T12:57:46;99323.91;;;12.23;73.36
55540;BME280;41384;51.418;7.286;2023-02-22T13:00:45;99326.69;;;12.16;72.46
55540;BME280;41384;51.418;7.286;2023-02-22T13:06:20;99322.88;;;12.24;73.69
55540;BME280;41384;51.418;7.286;2023-02-22T13:12:14;99327.84;;;12.20;71.50
55540;BME280;41384;51.418;7.286;2023-02-22T13:18:28;99326.91;;;12.03;75.30
55540;BME280;41384;51.418;7.286;2023-02-22T13:21:05;99331.28;;;12.21;73.72
55540;BME280;41384;51.418;7.286;2023-02-22T13:23:58;99320.81;;;12.26;73.69
55540;BME280;41384;51.418;7.286;2023-02-22T13:29:16;99318.53;;;12.30;73.66
55540;BME280;41384;51.418;7.286;2023-02-22T13:37:25;99320.34;;;12.29;73.15
55540;BME280;41384;51.418;7.286;2023-02-22T13:45:45;99314.94;;;12.36;71.96
55540;BME280;41384;51.418;7.286;2023-02-22T13:48:47;99317.13;;;12.39;71.78
55540;BME280;41384;51.418;7.286;2023-02-22T13:51:36;99321.84;;;12.37;72.24
55540;BME280;41384;51.418;7.286;2023-02-22T13:54:12;99312.06;;;12.25;74.29
55540;BME280;41384;51.418;7.286;2023-02-22T13:56:44;99320.44;;;12.10;76.13
55540;BME280;41384;51.418;7.286;2023-02-22T13:59:22;99320.47;;;12.46;69.98
55540;BME280;41384;51.418;7.286;2023-02-22T14:01:48;99317.66;;;11.93;76.53
55540;BME280;41384;51.418;7.286;2023-02-22T14:06:53;99320.13;;;12.07;75.72
55540;BME280;41384;51.418;7.286;2023-02-22T14:12:02;99310.94;;;12.21;73.84
55540;BME280;41384;51.418;7.286;2023-02-22T14:14:28;99312.06;;;12.14;74.94
55540;BME280;41384;51.418;7.286;2023-02-22T14:19:59;99319.56;;;12.29;72.62
55540;BME280;41384;51.418;7.286;2023-02-22T14:22:27;99320.59;;;12.39;72.19
55540;BME280;41384;51.418;7.286;2023-02-22T14:24:52;99321.75;;;12.32;74.21
55540;BME280;41384;51.418;7.286;2023-02-22T14:27:18;99318.06;;;12.45;72.29
55540;BME280;41384;51.418;7.286;2023-02-22T14:29:52;99318.28;;;12.19;74.12
55540;BME280;41384;51.418;7.286;2023-02-22T14:32:19;99328.38;;;12.82;63.81
55540;BME280;41384;51.418;7.286;2023-02-22T14:34:57;99315.63;;;12.19;69.51